Terminal Aerodrome Forecast
Issued by NWS Northern Indiana

Home | Current Version | Previous Version | Graphics & Text | Print | Product List | Glossary On
Versions: 1 2 3 4 5 6 7 8 9 10 11 12 13 14 15 16 17 18
000
FTUS43 KIWX 121000 AAA
TAFFWA
TAF AMD
KFWA 121002Z 1210/1306 04006KT P6SM SCT015 OVC025
      TEMPO 1210/1212 OVC015
     FM121600 03007KT P6SM OVC030
     FM130400 04008KT P6SM BKN035=

USA.gov is the U.S. government's official web portal to all federal, state and local government web resources and services.